Time;durP1;ratioP1;P1;durP2;ratioP2;P2;SDS_P1;SDS_P2;PMS_P1;PMS_P2;Temp;Humidity;BMP_temperature;BMP_pressure;BME280_temperature;BME280_humidity;BME280_pressure;Samples;Min_cycle;Max_cycle;Signal;HPM_P1;HPM_P2
2022/02/01 00:00:57;;;;;;;;;;;;;;;2.51;72.99;99131.19;1726538;82;20187;-79
2022/02/01 00:03:15;;;;;;;;;;;;;;;2.39;73.37;99133.53;1725748;81;20207;-78
2022/02/01 00:05:58;;;;;;;;;;;;;;;2.25;73.86;99136.47;1729479;81;20222;-81
2022/02/01 00:08:18;;;;;;;;;;;;;;;2.28;74.32;99141.42;1728370;82;20178;-79
2022/02/01 00:14:04;;;;;;;;;;;;;;;2.50;73.52;99144.35;1734890;82;20465;-79
2022/02/01 00:18:45;;;;;;;;;;;;;;;2.38;74.01;99147.53;1734725;80;20105;-79
2022/02/01 00:37:04;;;;;;;;;;;;;;;2.25;73.90;99157.31;1729065;80;20669;-78
2022/02/01 00:39:40;;;;;;;;;;;;;;;2.13;74.29;99151.36;1732467;81;20153;-79
2022/02/01 00:41:57;;;;;;;;;;;;;;;2.22;73.71;99150.59;1730412;81;20196;-78
2022/02/01 00:44:24;;;;;;;;;;;;;;;2.25;73.78;99154.70;1734801;82;20735;-79
2022/02/01 00:46:50;;;;;;;;;;;;;;;2.25;73.71;99157.31;1728794;82;20980;-80
2022/02/01 00:49:16;;;;;;;;;;;;;;;2.30;73.74;99155.14;1733312;82;21103;-80
2022/02/01 00:51:41;;;;;;;;;;;;;;;2.26;73.35;99155.06;1735144;82;20205;-80
2022/02/01 00:54:07;;;;;;;;;;;;;;;2.30;73.78;99155.14;1729540;80;20155;-79
2022/02/01 00:56:32;;;;;;;;;;;;;;;2.38;73.44;99160.55;1733305;82;20153;-80
2022/02/01 00:58:58;;;;;;;;;;;;;;;2.30;73.31;99178.58;1734673;81;20190;-80
2022/02/01 01:01:23;;;;;;;;;;;;;;;2.27;72.87;99170.56;1733719;82;21928;-78
2022/02/01 01:03:49;;;;;;;;;;;;;;;2.32;72.87;99166.27;1730514;82;20229;-81
2022/02/01 01:06:15;;;;;;;;;;;;;;;2.41;72.61;99162.91;1732351;81;20185;-79
2022/02/01 01:08:41;;;;;;;;;;;;;;;2.49;72.20;99156.56;1735472;82;20185;-79
2022/02/01 01:11:08;;;;;;;;;;;;;;;2.19;72.81;99157.81;1731851;82;20167;-78
2022/02/01 01:16:41;;;;;;;;;;;;;;;2.00;73.25;99156.72;1731719;81;20198;-77
2022/02/01 01:53:48;;;;;;;;;;;;;;;2.09;72.44;99201.55;1733022;82;20177;-79
2022/02/01 01:56:14;;;;;;;;;;;;;;;2.02;72.34;99197.80;1735081;81;20163;-79
2022/02/01 01:58:40;;;;;;;;;;;;;;;2.18;72.21;99197.38;1730118;82;20190;-78
2022/02/01 02:01:12;;;;;;;;;;;;;;;2.06;72.39;99204.40;1735517;82;20318;-78
2022/02/01 02:03:46;;;;;;;;;;;;;;;2.05;72.42;99218.39;1733117;81;20199;-78
2022/02/01 02:06:13;;;;;;;;;;;;;;;2.08;72.46;99206.88;1738483;80;21159;-78
2022/02/01 02:08:44;;;;;;;;;;;;;;;2.07;72.25;99213.06;1737638;81;20120;-80
2022/02/01 02:11:13;;;;;;;;;;;;;;;1.98;72.73;99206.81;1743176;81;20151;-78
2022/02/01 02:16:23;;;;;;;;;;;;;;;2.23;71.87;99208.23;1744942;81;20168;-80
2022/02/01 02:18:49;;;;;;;;;;;;;;;2.09;72.19;99219.77;1742526;80;21135;-78
2022/02/01 02:21:16;;;;;;;;;;;;;;;2.10;72.20;99227.95;1740697;81;20663;-81
2022/02/01 02:23:42;;;;;;;;;;;;;;;2.09;71.89;99235.40;1741222;81;20156;-79
2022/02/01 02:26:14;;;;;;;;;;;;;;;2.16;71.84;99235.75;1745203;81;20139;-78
2022/02/01 02:28:40;;;;;;;;;;;;;;;2.18;71.82;99253.86;1747852;80;20516;-78
2022/02/01 02:31:06;;;;;;;;;;;;;;;2.10;71.46;99255.30;1748392;80;21134;-78
2022/02/01 02:33:32;;;;;;;;;;;;;;;2.01;72.07;99248.22;1737976;81;20171;-78
2022/02/01 02:36:06;;;;;;;;;;;;;;;2.12;71.51;99257.29;1747782;81;20635;-81
2022/02/01 02:38:44;;;;;;;;;;;;;;;1.98;72.11;99247.16;1744187;81;20223;-81
2022/02/01 02:46:31;;;;;;;;;;;;;;;2.11;71.69;99260.86;1739378;81;20135;-80
2022/02/01 02:48:57;;;;;;;;;;;;;;;1.92;71.87;99258.07;1739482;81;20168;-79
2022/02/01 02:51:22;;;;;;;;;;;;;;;2.07;71.63;99256.03;1736913;81;20883;-79
2022/02/01 02:53:48;;;;;;;;;;;;;;;2.06;71.53;99261.69;1744559;80;20215;-79
2022/02/01 02:56:14;;;;;;;;;;;;;;;2.33;71.01;99255.19;1739594;81;20992;-79
2022/02/01 02:58:39;;;;;;;;;;;;;;;2.15;70.92;99270.06;1742474;81;20253;-78
2022/02/01 03:01:05;;;;;;;;;;;;;;;2.18;70.69;99268.18;1745407;81;20179;-78
2022/02/01 03:03:30;;;;;;;;;;;;;;;2.02;71.39;99259.00;1742884;81;20142;-78
2022/02/01 03:05:56;;;;;;;;;;;;;;;2.11;71.10;99260.86;1737474;81;20171;-77
2022/02/01 03:08:22;;;;;;;;;;;;;;;2.06;70.80;99259.57;1734578;82;21130;-77
2022/02/01 03:10:48;;;;;;;;;;;;;;;1.93;70.88;99264.95;1728589;82;20797;-78
2022/02/01 03:13:20;;;;;;;;;;;;;;;2.11;70.53;99268.67;1734615;82;20373;-78
2022/02/01 03:20:53;;;;;;;;;;;;;;;2.20;70.86;99279.30;1732672;82;20170;-78
2022/02/01 03:23:19;;;;;;;;;;;;;;;2.26;70.49;99270.98;1733996;82;20919;-78
2022/02/01 03:25:44;;;;;;;;;;;;;;;2.21;70.52;99284.37;1731029;82;20218;-79
2022/02/01 03:28:10;;;;;;;;;;;;;;;2.28;70.25;99288.12;1733036;82;20183;-79
2022/02/01 03:30:35;;;;;;;;;;;;;;;2.20;70.41;99291.02;1734576;81;20153;-79
2022/02/01 03:33:01;;;;;;;;;;;;;;;2.00;70.99;99288.22;1730477;81;21133;-78
2022/02/01 03:35:26;;;;;;;;;;;;;;;2.07;70.94;99294.60;1732243;81;20516;-78
2022/02/01 03:37:52;;;;;;;;;;;;;;;2.15;70.87;99293.50;1738381;82;20187;-77
2022/02/01 03:40:20;;;;;;;;;;;;;;;2.20;71.08;99302.73;1730300;82;20217;-80
2022/02/01 03:42:45;;;;;;;;;;;;;;;2.12;70.66;99302.86;1735686;81;21083;-78
2022/02/01 03:45:11;;;;;;;;;;;;;;;1.86;71.64;99305.42;1729947;82;21007;-77
2022/02/01 03:47:36;;;;;;;;;;;;;;;1.87;71.54;99306.59;1733463;82;20179;-77
2022/02/01 03:50:04;;;;;;;;;;;;;;;1.93;71.90;99305.30;1737960;82;20388;-81
2022/02/01 03:52:30;;;;;;;;;;;;;;;2.04;71.26;99302.66;1735850;82;20197;-81
2022/02/01 03:54:55;;;;;;;;;;;;;;;1.81;71.72;99304.97;1734185;82;20193;-81
2022/02/01 03:57:21;;;;;;;;;;;;;;;1.96;71.18;99306.36;1731013;82;21045;-78
2022/02/01 03:59:46;;;;;;;;;;;;;;;1.97;71.34;99303.63;1736012;81;20159;-80
2022/02/01 04:02:15;;;;;;;;;;;;;;;1.82;71.46;99301.39;1733557;81;20205;-77
2022/02/01 04:04:41;;;;;;;;;;;;;;;1.84;71.42;99291.70;1737263;82;20775;-78
2022/02/01 04:07:07;;;;;;;;;;;;;;;1.71;71.86;99287.92;1737003;81;20163;-78
2022/02/01 04:09:33;;;;;;;;;;;;;;;1.75;71.84;99289.34;1731063;81;21019;-78
2022/02/01 04:12:00;;;;;;;;;;;;;;;1.74;71.91;99291.59;1733874;80;20294;-78
2022/02/01 04:14:29;;;;;;;;;;;;;;;1.51;72.91;99295.98;1731898;82;20581;-78
2022/02/01 04:16:55;;;;;;;;;;;;;;;1.46;72.88;99286.42;1732718;82;20180;-79
2022/02/01 04:19:20;;;;;;;;;;;;;;;1.60;72.80;99283.56;1736761;82;20319;-79
2022/02/01 04:21:57;;;;;;;;;;;;;;;1.52;72.83;99276.83;1731526;82;21910;-79
2022/02/01 04:24:14;;;;;;;;;;;;;;;1.64;72.53;99277.17;1735859;81;20162;-78
2022/02/01 04:26:39;;;;;;;;;;;;;;;1.41;73.22;99267.27;1735989;80;20184;-79
2022/02/01 04:29:05;;;;;;;;;;;;;;;1.44;73.29;99273.53;1735089;81;20168;-78
2022/02/01 04:31:30;;;;;;;;;;;;;;;1.48;72.97;99265.84;1735003;81;20510;-81
2022/02/01 04:33:56;;;;;;;;;;;;;;;1.39;73.24;99259.58;1730943;81;21082;-78
2022/02/01 04:36:21;;;;;;;;;;;;;;;1.53;72.73;99263.70;1737057;82;20163;-79
2022/02/01 04:38:56;;;;;;;;;;;;;;;1.36;73.29;99267.63;1733910;80;20640;-78
2022/02/01 04:41:14;;;;;;;;;;;;;;;1.36;73.47;99271.52;1729595;81;20179;-81
2022/02/01 04:43:40;;;;;;;;;;;;;;;1.52;73.10;99272.93;1731511;82;20536;-78
2022/02/01 04:46:08;;;;;;;;;;;;;;;1.57;72.55;99270.78;1700881;82;21904;-77
2022/02/01 04:48:33;;;;;;;;;;;;;;;1.62;72.37;99267.38;1738297;82;20132;-78
2022/02/01 04:50:59;;;;;;;;;;;;;;;1.54;72.59;99274.93;1731389;82;20171;-78
2022/02/01 04:53:24;;;;;;;;;;;;;;;1.41;73.15;99278.97;1737604;82;20217;-78
2022/02/01 04:55:56;;;;;;;;;;;;;;;1.39;73.43;99282.17;1733841;80;20339;-78
2022/02/01 04:58:22;;;;;;;;;;;;;;;1.34;73.83;99290.81;1731432;82;21941;-80
2022/02/01 05:00:47;;;;;;;;;;;;;;;1.22;73.93;99288.67;1733154;82;20529;-80
2022/02/01 05:03:14;;;;;;;;;;;;;;;0.98;74.71;99300.00;1735492;81;20210;-80
2022/02/01 05:05:39;;;;;;;;;;;;;;;1.00;74.89;99294.20;1734616;82;20742;-80
2022/02/01 05:08:07;;;;;;;;;;;;;;;0.93;74.99;99288.28;1734216;81;20181;-80
2022/02/01 05:10:33;;;;;;;;;;;;;;;1.02;74.81;99301.41;1732521;81;21951;-80
2022/02/01 05:15:46;;;;;;;;;;;;;;;1.17;74.53;99303.33;1735450;80;20179;-79
2022/02/01 05:18:19;;;;;;;;;;;;;;;1.05;74.53;99306.38;1735540;81;20346;-78
2022/02/01 05:20:51;;;;;;;;;;;;;;;0.90;74.85;99304.93;1739528;80;20155;-78
2022/02/01 05:23:13;;;;;;;;;;;;;;;1.04;74.78;99302.14;1729381;81;20135;-79
2022/02/01 05:25:40;;;;;;;;;;;;;;;0.83;75.28;99297.25;1731712;82;20186;-79
2022/02/01 05:28:05;;;;;;;;;;;;;;;0.84;75.43;99297.59;1735982;82;20156;-78
2022/02/01 05:30:31;;;;;;;;;;;;;;;0.86;75.09;99299.63;1735781;82;20127;-79
2022/02/01 05:32:57;;;;;;;;;;;;;;;0.94;75.16;99292.55;1732663;82;20149;-79
2022/02/01 05:35:22;;;;;;;;;;;;;;;0.91;75.10;99297.98;1736095;82;21067;-79
2022/02/01 05:37:48;;;;;;;;;;;;;;;0.89;75.36;99301.52;1736737;82;20169;-79
2022/02/01 05:40:14;;;;;;;;;;;;;;;1.06;74.61;99311.12;1730404;82;20195;-79
2022/02/01 05:43:24;;;;;;;;;;;;;;;0.90;75.06;99312.73;1729212;82;20226;-79
2022/02/01 05:45:10;;;;;;;;;;;;;;;0.90;75.28;99312.73;1704262;82;20311;-79
2022/02/01 05:47:35;;;;;;;;;;;;;;;0.84;75.07;99310.59;1735008;82;21840;-79
2022/02/01 05:50:01;;;;;;;;;;;;;;;0.83;75.36;99311.55;1734554;82;20177;-78
2022/02/01 05:52:26;;;;;;;;;;;;;;;0.71;75.66;99318.02;1733829;82;20486;-78
2022/02/01 05:54:52;;;;;;;;;;;;;;;0.81;75.56;99327.26;1734292;80;21242;-78
2022/02/01 05:57:18;;;;;;;;;;;;;;;0.79;75.59;99323.11;1735599;82;20183;-78
2022/02/01 05:59:43;;;;;;;;;;;;;;;0.81;75.47;99331.61;1732456;82;21081;-79
2022/02/01 06:02:09;;;;;;;;;;;;;;;1.03;74.63;99321.27;1732989;82;20167;-78
2022/02/01 06:04:34;;;;;;;;;;;;;;;0.97;74.82;99324.33;1731991;82;20144;-78
2022/02/01 06:07:00;;;;;;;;;;;;;;;0.83;75.32;99328.44;1736677;80;20216;-79
2022/02/01 06:09:26;;;;;;;;;;;;;;;0.70;76.09;99335.84;1742518;81;20154;-78
2022/02/01 06:11:51;;;;;;;;;;;;;;;0.81;75.72;99339.41;1746065;81;21987;-79
2022/02/01 06:14:17;;;;;;;;;;;;;;;0.80;75.59;99337.77;1749032;81;20145;-79
2022/02/01 06:16:42;;;;;;;;;;;;;;;0.67;75.98;99354.26;1740117;81;20154;-79
2022/02/01 06:19:08;;;;;;;;;;;;;;;0.71;76.06;99355.70;1744978;81;20640;-79
2022/02/01 06:21:34;;;;;;;;;;;;;;;0.52;76.89;99361.39;1738521;81;20223;-79
2022/02/01 06:23:59;;;;;;;;;;;;;;;0.63;76.48;99345.02;1738859;81;21078;-80
2022/02/01 06:26:25;;;;;;;;;;;;;;;0.73;76.05;99346.50;1748907;81;21282;-79
2022/02/01 06:28:51;;;;;;;;;;;;;;;0.70;76.03;99342.82;1742130;81;20138;-79
2022/02/01 06:31:16;;;;;;;;;;;;;;;0.46;76.76;99337.16;1740810;81;20151;-79
2022/02/01 06:33:42;;;;;;;;;;;;;;;0.78;75.98;99341.78;1749144;80;20793;-79
2022/02/01 06:36:07;;;;;;;;;;;;;;;0.82;75.73;99343.19;1735864;81;21749;-78
2022/02/01 06:38:33;;;;;;;;;;;;;;;0.88;75.75;99348.41;1741142;81;20151;-79
2022/02/01 06:40:58;;;;;;;;;;;;;;;0.81;75.95;99348.50;1744767;81;20156;-78
2022/02/01 06:43:27;;;;;;;;;;;;;;;0.62;76.50;99355.08;1743925;81;20156;-78
2022/02/01 06:45:51;;;;;;;;;;;;;;;0.79;76.13;99352.98;1740321;81;21261;-79
2022/02/01 06:48:17;;;;;;;;;;;;;;;0.86;76.18;99334.71;1738334;81;21109;-79
2022/02/01 06:50:42;;;;;;;;;;;;;;;0.73;76.41;99332.66;1745181;81;20160;-79
2022/02/01 06:53:09;;;;;;;;;;;;;;;0.78;76.77;99333.13;1744785;81;20181;-79
2022/02/01 06:58:13;;;;;;;;;;;;;;;0.70;76.86;99352.73;1747008;81;20133;-79
2022/02/01 07:00:39;;;;;;;;;;;;;;;0.66;77.37;99352.59;1746774;81;21304;-80
2022/02/01 07:03:05;;;;;;;;;;;;;;;0.86;76.72;99353.72;1745012;81;20120;-78
2022/02/01 07:05:30;;;;;;;;;;;;;;;0.91;76.47;99348.19;1748823;80;20220;-79
2022/02/01 07:07:56;;;;;;;;;;;;;;;0.92;76.62;99352.45;1746187;81;20143;-79
2022/02/01 07:10:22;;;;;;;;;;;;;;;0.99;76.44;99349.73;1742724;81;20159;-79
2022/02/01 07:12:47;;;;;;;;;;;;;;;1.08;75.94;99347.74;1743885;81;21957;-79
2022/02/01 07:15:13;;;;;;;;;;;;;;;0.80;76.67;99354.66;1751603;81;20136;-79
2022/02/01 07:17:51;;;;;;;;;;;;;;;0.93;76.82;99348.89;1744739;81;20147;-80
2022/02/01 07:20:17;;;;;;;;;;;;;;;1.05;76.20;99351.88;1743377;80;20205;-78
2022/02/01 07:22:45;;;;;;;;;;;;;;;1.10;76.21;99355.91;1739672;81;20348;-79
2022/02/01 07:25:23;;;;;;;;;;;;;;;1.22;75.75;99357.59;1741038;81;20148;-79
2022/02/01 07:27:47;;;;;;;;;;;;;;;1.30;75.45;99364.33;1747645;81;20201;-77
2022/02/01 07:30:11;;;;;;;;;;;;;;;1.43;74.97;99365.06;1744226;81;20167;-78
2022/02/01 07:32:38;;;;;;;;;;;;;;;1.41;75.37;99364.36;1745270;81;20186;-78
2022/02/01 07:35:04;;;;;;;;;;;;;;;1.45;74.93;99365.43;1749045;81;20206;-78
2022/02/01 07:37:30;;;;;;;;;;;;;;;1.25;75.83;99375.56;1738704;81;21248;-78
2022/02/01 07:39:55;;;;;;;;;;;;;;;1.33;75.69;99378.88;1739377;81;20452;-79
2022/02/01 07:42:21;;;;;;;;;;;;;;;1.32;75.37;99377.22;1748221;81;20194;-78
2022/02/01 07:44:46;;;;;;;;;;;;;;;1.26;75.51;99385.03;1738387;81;20143;-78
2022/02/01 07:47:19;;;;;;;;;;;;;;;1.40;75.47;99377.00;1741351;81;20175;-78
2022/02/01 07:49:39;;;;;;;;;;;;;;;1.41;75.34;99379.12;1739583;81;20147;-78
2022/02/01 07:52:05;;;;;;;;;;;;;;;1.39;75.35;99380.54;1737434;81;21083;-79
2022/02/01 07:54:31;;;;;;;;;;;;;;;1.44;75.69;99378.89;1737448;81;20367;-79
2022/02/01 07:56:56;;;;;;;;;;;;;;;1.26;76.03;99375.93;1739546;81;20125;-79
2022/02/01 07:59:22;;;;;;;;;;;;;;;1.34;76.11;99373.56;1739414;81;20158;-78
2022/02/01 08:01:47;;;;;;;;;;;;;;;1.56;75.47;99364.94;1740220;81;21140;-78
2022/02/01 08:04:13;;;;;;;;;;;;;;;1.68;74.91;99381.40;1746664;80;21122;-78
2022/02/01 08:06:38;;;;;;;;;;;;;;;1.51;75.28;99379.24;1744808;81;20147;-77
2022/02/01 08:09:13;;;;;;;;;;;;;;;1.59;75.37;99376.91;1730273;80;20156;-78
2022/02/01 08:11:32;;;;;;;;;;;;;;;1.34;76.13;99369.66;1729540;81;20533;-78
2022/02/01 08:16:40;;;;;;;;;;;;;;;1.68;75.43;99363.18;1726476;82;20560;-81
2022/02/01 08:19:12;;;;;;;;;;;;;;;1.41;76.00;99378.67;1725640;82;20104;-79
2022/02/01 08:21:42;;;;;;;;;;;;;;;1.60;75.64;99366.83;1729962;82;20139;-78
2022/02/01 08:23:59;;;;;;;;;;;;;;;1.45;76.12;99364.95;1724763;81;20247;-78
2022/02/01 08:26:26;;;;;;;;;;;;;;;1.46;76.16;99361.86;1733495;80;21212;-79
2022/02/01 08:28:52;;;;;;;;;;;;;;;1.83;75.33;99364.23;1728238;82;20225;-79
2022/02/01 08:31:17;;;;;;;;;;;;;;;1.71;75.74;99359.05;1728947;82;20149;-79
2022/02/01 08:33:43;;;;;;;;;;;;;;;1.62;75.38;99359.75;1725222;82;20529;-77
2022/02/01 08:36:09;;;;;;;;;;;;;;;1.71;74.81;99356.44;1730748;80;20187;-80
2022/02/01 08:38:34;;;;;;;;;;;;;;;1.69;75.14;99360.91;1732871;82;21076;-78
2022/02/01 08:41:00;;;;;;;;;;;;;;;1.76;74.27;99361.28;1728589;82;20655;-80
2022/02/01 08:43:27;;;;;;;;;;;;;;;1.85;73.60;99363.63;1727798;82;20195;-80
2022/02/01 08:45:52;;;;;;;;;;;;;;;2.00;73.30;99368.94;1728685;82;20220;-80
2022/02/01 08:48:18;;;;;;;;;;;;;;;1.93;73.05;99371.20;1736504;82;20346;-80
2022/02/01 08:50:43;;;;;;;;;;;;;;;2.26;72.64;99373.39;1727674;82;21169;-79
2022/02/01 08:53:25;;;;;;;;;;;;;;;2.24;72.22;99369.27;1726651;81;20470;-80
2022/02/01 08:58:23;;;;;;;;;;;;;;;2.18;71.74;99386.69;1730567;82;20757;-78
2022/02/01 09:00:49;;;;;;;;;;;;;;;1.98;72.05;99376.05;1728598;82;21065;-78
2022/02/01 09:03:14;;;;;;;;;;;;;;;2.19;71.19;99374.84;1731875;82;21180;-78
2022/02/01 09:05:42;;;;;;;;;;;;;;;2.24;71.10;99366.67;1732534;80;20159;-78
2022/02/01 09:08:07;;;;;;;;;;;;;;;1.99;71.41;99369.91;1733229;80;20195;-78
2022/02/01 09:10:33;;;;;;;;;;;;;;;1.96;71.24;99365.76;1730052;82;20143;-78
2022/02/01 09:12:59;;;;;;;;;;;;;;;2.15;70.92;99358.61;1727937;82;20166;-79
2022/02/01 09:15:26;;;;;;;;;;;;;;;2.03;70.93;99353.08;1728116;82;21999;-81
2022/02/01 09:17:54;;;;;;;;;;;;;;;2.21;70.32;99359.09;1728927;81;20508;-78
2022/02/01 09:20:19;;;;;;;;;;;;;;;2.63;69.06;99357.41;1731178;82;20483;-78
2022/02/01 09:22:45;;;;;;;;;;;;;;;2.54;68.83;99369.06;1729573;81;20152;-78
2022/02/01 09:25:12;;;;;;;;;;;;;;;2.66;68.92;99364.16;1730435;82;20162;-80
2022/02/01 09:27:38;;;;;;;;;;;;;;;2.44;68.31;99365.89;1724836;82;21132;-81
2022/02/01 09:30:05;;;;;;;;;;;;;;;2.27;68.76;99379.42;1729501;82;20203;-80
2022/02/01 09:32:30;;;;;;;;;;;;;;;2.68;67.58;99367.45;1726319;82;20169;-81
2022/02/01 09:34:56;;;;;;;;;;;;;;;2.87;66.97;99367.63;1728385;81;21285;-78
2022/02/01 09:37:23;;;;;;;;;;;;;;;2.57;67.05;99380.55;1730356;82;20150;-78
2022/02/01 09:39:50;;;;;;;;;;;;;;;2.47;67.20;99387.80;1731161;81;21236;-78
2022/02/01 09:42:16;;;;;;;;;;;;;;;2.26;67.96;99381.69;1731925;82;20115;-78
2022/02/01 09:44:42;;;;;;;;;;;;;;;2.27;67.98;99400.27;1725984;81;20222;-78
2022/02/01 09:47:08;;;;;;;;;;;;;;;2.34;68.20;99374.08;1725359;82;20187;-78
2022/02/01 09:49:34;;;;;;;;;;;;;;;2.69;67.58;99373.03;1731352;81;20159;-78
2022/02/01 09:52:01;;;;;;;;;;;;;;;2.66;67.60;99365.47;1728206;82;21831;-79
2022/02/01 09:54:29;;;;;;;;;;;;;;;2.55;67.63;99365.48;1729254;81;20138;-79
2022/02/01 09:56:55;;;;;;;;;;;;;;;2.53;68.03;99360.88;1730233;82;20148;-78
2022/02/01 09:59:29;;;;;;;;;;;;;;;2.79;67.06;99354.36;1731548;81;20233;-78
2022/02/01 10:01:55;;;;;;;;;;;;;;;2.94;66.58;99359.30;1726796;81;20162;-81
2022/02/01 10:04:17;;;;;;;;;;;;;;;3.04;66.69;99351.04;1727126;80;20159;-78
2022/02/01 10:06:42;;;;;;;;;;;;;;;3.07;66.57;99350.78;1725299;81;20138;-78
2022/02/01 10:09:13;;;;;;;;;;;;;;;2.73;66.92;99344.44;1728195;81;20151;-78
2022/02/01 10:11:44;;;;;;;;;;;;;;;2.72;67.66;99348.47;1728827;81;20200;-81
2022/02/01 10:14:13;;;;;;;;;;;;;;;2.80;67.71;99348.20;1728542;82;20236;-79
2022/02/01 10:16:43;;;;;;;;;;;;;;;2.80;67.94;99336.48;1727640;80;20172;-79
2022/02/01 10:19:11;;;;;;;;;;;;;;;2.87;67.67;99348.06;1729621;82;20144;-80
2022/02/01 10:21:51;;;;;;;;;;;;;;;3.19;67.13;99343.73;1726956;81;20479;-78
2022/02/01 10:24:33;;;;;;;;;;;;;;;3.00;67.57;99335.31;1720404;82;20210;-79
2022/02/01 10:27:09;;;;;;;;;;;;;;;3.09;67.93;99334.52;1708304;82;20177;-80
2022/02/01 10:29:35;;;;;;;;;;;;;;;3.12;68.25;99326.44;1726505;82;21103;-79
2022/02/01 10:32:19;;;;;;;;;;;;;;;3.25;68.10;99319.73;1728934;82;20145;-80
2022/02/01 10:34:44;;;;;;;;;;;;;;;3.25;67.83;99307.98;1730082;82;20532;-81
2022/02/01 10:37:21;;;;;;;;;;;;;;;3.40;67.64;99293.64;1730605;81;20178;-81
2022/02/01 10:39:48;;;;;;;;;;;;;;;3.40;67.62;99287.57;1731817;82;20188;-78
2022/02/01 10:42:14;;;;;;;;;;;;;;;3.22;67.68;99283.46;1731511;82;21813;-78
2022/02/01 10:44:48;;;;;;;;;;;;;;;3.40;67.38;99286.27;1729767;82;20599;-79
2022/02/01 10:47:20;;;;;;;;;;;;;;;3.36;67.59;99274.45;1731361;82;20159;-80
2022/02/01 10:49:46;;;;;;;;;;;;;;;3.70;66.72;99275.46;1727109;81;20175;-79
2022/02/01 10:52:13;;;;;;;;;;;;;;;3.76;66.47;99280.16;1729754;82;20147;-78
2022/02/01 10:54:40;;;;;;;;;;;;;;;3.83;66.34;99263.45;1722326;81;21067;-79
2022/02/01 10:57:07;;;;;;;;;;;;;;;3.80;66.06;99271.06;1725558;82;20211;-79
2022/02/01 10:59:32;;;;;;;;;;;;;;;3.67;66.78;99260.88;1728393;82;20911;-79
2022/02/01 11:02:00;;;;;;;;;;;;;;;3.59;66.95;99260.24;1730542;80;20295;-80
2022/02/01 11:04:27;;;;;;;;;;;;;;;3.80;66.75;99254.09;1728442;82;20384;-79
2022/02/01 11:06:53;;;;;;;;;;;;;;;3.77;67.18;99253.06;1727683;82;21156;-81
2022/02/01 11:09:22;;;;;;;;;;;;;;;4.16;66.46;99241.83;1735096;81;20314;-80
2022/02/01 11:11:53;;;;;;;;;;;;;;;4.04;66.58;99242.44;1749430;81;20171;-79
2022/02/01 11:14:23;;;;;;;;;;;;;;;4.02;66.44;99237.84;1741653;81;20231;-79
2022/02/01 11:16:49;;;;;;;;;;;;;;;3.92;67.08;99245.67;1739186;81;20185;-80
2022/02/01 11:19:14;;;;;;;;;;;;;;;3.90;67.28;99241.89;1743914;81;22006;-80
2022/02/01 11:21:47;;;;;;;;;;;;;;;3.99;67.25;99242.02;1746799;81;38593;-79
2022/02/01 11:24:35;;;;;;;;;;;;;;;4.15;66.80;99241.02;1743034;81;20191;-80
2022/02/01 11:27:19;;;;;;;;;;;;;;;3.94;67.33;99236.72;1741604;81;20134;-79
2022/02/01 11:30:11;;;;;;;;;;;;;;;4.23;66.59;99238.53;1744365;81;20451;-79
2022/02/01 11:32:19;;;;;;;;;;;;;;;3.98;67.38;99224.23;1748849;81;20109;-79
2022/02/01 11:34:44;;;;;;;;;;;;;;;3.98;66.99;99219.47;1747323;81;20285;-79
2022/02/01 11:37:13;;;;;;;;;;;;;;;3.84;67.36;99217.63;1749986;81;20930;-79
2022/02/01 11:39:49;;;;;;;;;;;;;;;4.06;67.29;99205.27;1739758;81;20870;-79
2022/02/01 11:42:15;;;;;;;;;;;;;;;4.05;67.05;99206.21;1743515;81;20533;-79
2022/02/01 11:44:41;;;;;;;;;;;;;;;3.77;67.74;99200.83;1745456;81;20943;-78
2022/02/01 11:47:20;;;;;;;;;;;;;;;4.17;66.86;99195.97;1742121;81;20360;-81
2022/02/01 11:49:56;;;;;;;;;;;;;;;4.17;66.77;99211.64;1742323;81;20132;-78
2022/02/01 11:52:22;;;;;;;;;;;;;;;4.18;66.11;99191.09;1741656;81;20756;-79
2022/02/01 11:54:48;;;;;;;;;;;;;;;4.19;66.45;99194.52;1741388;81;20147;-79
2022/02/01 11:57:25;;;;;;;;;;;;;;;4.42;65.78;99177.56;1742164;81;21171;-79
2022/02/01 11:59:59;;;;;;;;;;;;;;;4.20;66.42;99169.56;1732719;81;20434;-80
2022/02/01 12:02:37;;;;;;;;;;;;;;;4.10;67.04;99171.34;1746726;81;20179;-79
2022/02/01 12:05:09;;;;;;;;;;;;;;;4.07;66.75;99167.70;1749655;81;20120;-80
2022/02/01 12:08:08;;;;;;;;;;;;;;;4.37;66.36;99160.18;1724159;81;20483;-79
2022/02/01 12:10:39;;;;;;;;;;;;;;;4.25;66.15;99161.30;1730298;81;20530;-79
2022/02/01 12:13:06;;;;;;;;;;;;;;;4.37;66.28;99146.30;1725198;82;20298;-79
2022/02/01 12:15:33;;;;;;;;;;;;;;;4.87;65.33;99140.75;1728776;82;20200;-79
2022/02/01 12:18:17;;;;;;;;;;;;;;;4.92;64.72;99145.06;1726882;82;20251;-78
2022/02/01 12:20:43;;;;;;;;;;;;;;;4.31;65.74;99147.67;1725577;82;20237;-80
2022/02/01 12:23:22;;;;;;;;;;;;;;;4.48;65.41;99139.59;1725558;82;21093;-79
2022/02/01 12:25:47;;;;;;;;;;;;;;;4.60;65.24;99140.22;1728070;82;20258;-79
2022/02/01 12:28:18;;;;;;;;;;;;;;;4.94;64.96;99144.45;1726122;82;20242;-79
2022/02/01 12:30:44;;;;;;;;;;;;;;;4.79;64.55;99145.89;1730992;82;20226;-79
2022/02/01 12:33:22;;;;;;;;;;;;;;;5.12;63.72;99143.67;1726241;82;20211;-79
2022/02/01 12:35:50;;;;;;;;;;;;;;;4.91;63.77;99135.58;1728666;81;21193;-79
2022/02/01 12:38:21;;;;;;;;;;;;;;;4.85;63.98;99140.89;1726582;82;20205;-80
2022/02/01 12:40:52;;;;;;;;;;;;;;;4.83;64.23;99122.38;1731040;81;20133;-79
2022/02/01 12:43:22;;;;;;;;;;;;;;;4.62;64.70;99127.85;1728880;81;20253;-78
2022/02/01 12:45:57;;;;;;;;;;;;;;;4.76;64.24;99123.95;1725031;82;20221;-79
2022/02/01 12:48:20;;;;;;;;;;;;;;;4.94;63.55;99119.59;1728799;82;20233;-79
2022/02/01 12:50:57;;;;;;;;;;;;;;;4.81;63.86;99119.09;1733867;82;20180;-78
2022/02/01 12:53:23;;;;;;;;;;;;;;;4.98;63.51;99110.47;1729272;82;20195;-79
2022/02/01 12:55:48;;;;;;;;;;;;;;;5.30;62.67;99105.27;1729910;82;20146;-80
2022/02/01 12:58:14;;;;;;;;;;;;;;;4.95;62.92;99105.52;1727737;81;20165;-78
2022/02/01 13:00:40;;;;;;;;;;;;;;;4.83;63.29;99101.45;1718986;81;22374;-78
2022/02/01 13:03:06;;;;;;;;;;;;;;;4.65;63.98;99100.92;1723121;82;20239;-79
2022/02/01 13:05:32;;;;;;;;;;;;;;;4.56;63.94;99108.31;1735936;82;20316;-78
2022/02/01 13:08:21;;;;;;;;;;;;;;;5.01;63.47;99100.20;1732661;82;20216;-78
2022/02/01 13:21:10;;;;;;;;;;;;;;;4.90;63.37;99098.61;1729173;82;20201;-80
2022/02/01 13:23:44;;;;;;;;;;;;;;;4.54;63.70;99095.88;1715645;82;20215;-79
2022/02/01 13:26:18;;;;;;;;;;;;;;;4.51;64.26;99089.63;1726496;81;21981;-79
2022/02/01 13:28:46;;;;;;;;;;;;;;;4.68;64.14;99081.52;1728043;82;20631;-79
2022/02/01 13:31:14;;;;;;;;;;;;;;;4.83;64.18;99079.22;1725915;82;20169;-80
2022/02/01 13:33:49;;;;;;;;;;;;;;;5.03;64.43;99082.09;1737903;81;20162;-80
2022/02/01 13:36:15;;;;;;;;;;;;;;;4.42;67.28;99080.03;1731601;80;20212;-80
2022/02/01 13:38:58;;;;;;;;;;;;;;;4.55;67.85;99066.14;1726179;82;22419;-79
2022/02/01 13:41:25;;;;;;;;;;;;;;;4.66;67.86;99069.05;1724429;82;20167;-79
2022/02/01 13:43:52;;;;;;;;;;;;;;;4.56;68.94;99062.56;1729347;82;20162;-78
2022/02/01 13:46:23;;;;;;;;;;;;;;;4.16;70.72;99062.84;1732631;82;20212;-79
2022/02/01 13:49:00;;;;;;;;;;;;;;;4.44;70.48;99057.17;1722848;82;20493;-81
2022/02/01 13:51:25;;;;;;;;;;;;;;;4.11;72.27;99058.05;1727770;82;21085;-80
2022/02/01 13:54:00;;;;;;;;;;;;;;;4.60;71.26;99052.16;1735438;82;20492;-79
2022/02/01 13:56:29;;;;;;;;;;;;;;;4.67;71.13;99047.98;1728304;82;20198;-80
2022/02/01 13:59:10;;;;;;;;;;;;;;;4.74;71.01;99036.94;1726030;82;20534;-80
2022/02/01 14:01:44;;;;;;;;;;;;;;;4.60;71.26;99030.41;1730699;82;20682;-79
2022/02/01 14:04:14;;;;;;;;;;;;;;;4.86;70.33;99027.92;1723380;82;21273;-80
2022/02/01 14:12:00;;;;;;;;;;;;;;;4.89;70.70;99001.47;1754707;81;20104;-80
2022/02/01 14:27:44;;;;;;;;;;;;;;;5.01;70.68;98968.89;1747585;81;20678;-80
2022/02/01 14:33:21;;;;;;;;;;;;;;;4.79;72.42;98964.92;1748258;81;20460;-80
2022/02/01 14:35:05;;;;;;;;;;;;;;;5.00;72.46;98951.56;1756948;81;20117;-81
2022/02/01 14:37:46;;;;;;;;;;;;;;;5.01;72.35;98954.50;1750483;81;20225;-78
2022/02/01 14:45:11;;;;;;;;;;;;;;;5.08;73.69;98934.27;1751820;81;20144;-79
2022/02/01 14:47:37;;;;;;;;;;;;;;;4.87;74.14;98927.56;1751538;81;20185;-78
2022/02/01 14:50:03;;;;;;;;;;;;;;;4.70;74.88;98916.13;1748813;81;20150;-79
2022/02/01 14:52:29;;;;;;;;;;;;;;;4.64;75.46;98912.30;1754806;81;20192;-78
2022/02/01 14:55:00;;;;;;;;;;;;;;;4.85;74.78;98912.02;1750330;81;22362;-78
2022/02/01 15:06:12;;;;;;;;;;;;;;;4.77;74.84;98900.66;1747154;80;20174;-80
2022/02/01 15:13:31;;;;;;;;;;;;;;;4.41;76.79;98882.34;1743880;81;20095;-80